Time,TemperatureF,DewpointF,PressureIn,WindDirection,WindDirectionDegrees,WindSpeedMPH,WindSpeedGustMPH,Humidity,HourlyPrecipIn,Conditions,Clouds,dailyrainin,SolarRadiationWatts/m^2,SoftwareType,DateUTC
2013-03-17 00:04:00,34.0,19.6,30.02,West,279,13.0,23.0,55,0.00,,,0.00,0,WeatherCatV1.14B232,2013-03-17 07:04:00,
2013-03-17 00:09:00,33.8,19.8,30.02,NW,309,18.0,22.0,56,0.00,,,0.00,0,WeatherCatV1.14B232,2013-03-17 07:09:00,
2013-03-17 00:14:00,33.8,19.8,29.99,WNW,293,15.0,25.0,56,0.00,,,0.00,0,WeatherCatV1.14B232,2013-03-17 07:14:00,
2013-03-17 00:19:00,33.8,20.2,29.99,West,262,12.0,23.0,57,0.00,,,0.00,0,WeatherCatV1.14B232,2013-03-17 07:19:00,
2013-03-17 00:24:00,33.5,19.9,29.99,WNW,293,14.0,21.0,57,0.00,,,0.00,0,WeatherCatV1.14B232,2013-03-17 07:24:00,
2013-03-17 00:29:00,33.4,20.2,30.00,NW,316,18.0,21.0,58,0.00,,,0.00,0,WeatherCatV1.14B232,2013-03-17 07:29:00,
2013-03-17 00:34:00,33.4,20.2,30.00,West,269,13.0,18.0,58,0.00,,,0.00,0,WeatherCatV1.14B232,2013-03-17 07:34:00,
2013-03-17 00:39:00,33.4,20.2,30.00,WNW,303,14.0,21.0,58,0.00,,,0.00,0,WeatherCatV1.14B232,2013-03-17 07:39:00,
2013-03-17 00:44:00,33.4,20.2,30.00,West,279,17.0,23.0,58,0.00,,,0.00,0,WeatherCatV1.14B232,2013-03-17 07:44:00,
2013-03-17 00:49:00,33.2,20.0,30.00,WNW,301,17.0,21.0,58,0.00,,,0.00,0,WeatherCatV1.14B232,2013-03-17 07:49:00,
2013-03-17 00:54:00,33.2,20.4,30.00,WNW,297,13.0,17.0,59,0.00,,,0.00,0,WeatherCatV1.14B232,2013-03-17 07:54:00,
2013-03-17 00:59:00,33.2,20.0,30.00,WNW,297,14.0,21.0,58,0.00,,,0.00,0,WeatherCatV1.14B232,2013-03-17 07:59:00,
2013-03-17 01:04:00,33.2,20.0,30.00,NW,307,15.0,25.0,58,0.00,,,0.00,0,WeatherCatV1.14B232,2013-03-17 08:04:00,
2013-03-17 01:09:00,33.2,20.0,30.00,WNW,288,24.0,24.0,58,0.00,,,0.00,0,WeatherCatV1.14B232,2013-03-17 08:09:00,
2013-03-17 01:14:00,33.4,20.2,29.99,WSW,240,10.0,19.0,58,0.00,,,0.00,0,WeatherCatV1.14B232,2013-03-17 08:14:00,
2013-03-17 01:19:00,33.4,19.8,29.99,WNW,288,18.0,24.0,57,0.00,,,0.00,0,WeatherCatV1.14B232,2013-03-17 08:19:00,
2013-03-17 01:24:00,33.4,19.8,29.99,West,270,12.0,19.0,57,0.00,,,0.00,0,WeatherCatV1.14B232,2013-03-17 08:24:00,
2013-03-17 01:29:00,33.2,20.0,29.99,WNW,283,12.0,19.0,58,0.00,,,0.00,0,WeatherCatV1.14B232,2013-03-17 08:29:00,
2013-03-17 01:34:00,33.2,19.6,29.99,WNW,283,12.0,17.0,57,0.00,,,0.00,0,WeatherCatV1.14B232,2013-03-17 08:34:00,
2013-03-17 01:39:00,33.4,19.4,29.99,NW,310,12.0,20.0,56,0.00,,,0.00,0,WeatherCatV1.14B232,2013-03-17 08:39:00,
2013-03-17 01:44:00,33.5,19.1,29.98,WNW,288,16.0,18.0,55,0.00,,,0.00,0,WeatherCatV1.14B232,2013-03-17 08:44:00,
2013-03-17 01:49:00,33.5,19.1,29.98,WNW,288,11.0,16.0,55,0.00,,,0.00,0,WeatherCatV1.14B232,2013-03-17 08:49:00,
2013-03-17 01:54:00,33.5,19.1,29.98,WNW,283,11.0,17.0,55,0.00,,,0.00,0,WeatherCatV1.14B232,2013-03-17 08:54:00,
2013-03-17 01:59:00,33.5,19.1,29.98,SW,227,11.0,18.0,55,0.00,,,0.00,0,WeatherCatV1.14B232,2013-03-17 08:59:00,
2013-03-17 02:04:00,33.5,19.1,29.98,West,259,11.0,23.0,55,0.00,,,0.00,0,WeatherCatV1.14B232,2013-03-17 09:04:00,
2013-03-17 02:09:00,33.5,19.5,29.98,West,275,12.0,21.0,56,0.00,,,0.00,0,WeatherCatV1.14B232,2013-03-17 09:09:00,
2013-03-17 02:14:00,33.5,19.1,30.00,WNW,293,11.0,17.0,55,0.00,,,0.00,0,WeatherCatV1.14B232,2013-03-17 09:14:00,
2013-03-17 02:19:00,33.4,19.0,30.00,WNW,283,9.0,15.0,55,0.00,,,0.00,0,WeatherCatV1.14B232,2013-03-17 09:19:00,
2013-03-17 02:24:00,33.2,18.4,30.00,WNW,297,14.0,21.0,54,0.00,,,0.00,0,WeatherCatV1.14B232,2013-03-17 09:24:00,
2013-03-17 02:29:00,33.4,17.7,29.99,West,274,17.0,22.0,52,0.00,,,0.00,0,WeatherCatV1.14B232,2013-03-17 09:29:00,
2013-03-17 02:34:00,33.2,17.5,29.99,WNW,293,12.0,20.0,52,0.00,,,0.00,0,WeatherCatV1.14B232,2013-03-17 09:34:00,
2013-03-17 02:39:00,33.2,17.5,29.99,West,264,14.0,20.0,52,0.00,,,0.00,0,WeatherCatV1.14B232,2013-03-17 09:39:00,
2013-03-17 02:44:00,33.4,16.8,29.99,NW,305,14.0,19.0,50,0.00,,,0.00,0,WeatherCatV1.14B232,2013-03-17 09:44:00,
2013-03-17 02:49:00,33.4,17.2,29.99,WNW,301,17.0,17.0,51,0.00,,,0.00,0,WeatherCatV1.14B232,2013-03-17 09:49:00,
2013-03-17 02:54:00,33.5,15.9,29.99,WNW,293,10.0,17.0,48,0.00,,,0.00,0,WeatherCatV1.14B232,2013-03-17 09:54:00,
2013-03-17 02:59:00,33.4,15.8,29.99,West,279,14.0,18.0,48,0.00,,,0.00,0,WeatherCatV1.14B232,2013-03-17 09:59:00,
2013-03-17 03:04:00,33.4,15.8,29.99,West,278,15.0,23.0,48,0.00,,,0.00,0,WeatherCatV1.14B232,2013-03-17 10:04:00,
2013-03-17 03:09:00,33.4,15.4,29.99,NNW,328,17.0,23.0,47,0.00,,,0.00,0,WeatherCatV1.14B232,2013-03-17 10:09:00,
2013-03-17 03:14:00,33.4,14.9,30.01,WNW,303,12.0,19.0,46,0.00,,,0.00,0,WeatherCatV1.14B232,2013-03-17 10:14:00,
2013-03-17 03:19:00,33.5,15.9,30.01,WNW,293,17.0,20.0,48,0.00,,,0.00,0,WeatherCatV1.14B232,2013-03-17 10:19:00,
2013-03-17 03:24:00,33.5,15.9,30.01,NW,316,15.0,19.0,48,0.00,,,0.00,0,WeatherCatV1.14B232,2013-03-17 10:24:00,
2013-03-17 03:29:00,33.2,16.6,30.00,NW,322,15.0,20.0,50,0.00,,,0.00,0,WeatherCatV1.14B232,2013-03-17 10:29:00,
2013-03-17 03:34:00,33.4,16.3,30.00,NNW,341,13.0,21.0,49,0.00,,,0.00,0,WeatherCatV1.14B232,2013-03-17 10:34:00,
2013-03-17 03:39:00,33.2,16.1,30.00,NNW,332,9.0,23.0,49,0.00,,,0.00,0,WeatherCatV1.14B232,2013-03-17 10:39:00,
2013-03-17 03:44:00,33.2,16.1,30.00,NW,306,12.0,22.0,49,0.00,,,0.00,0,WeatherCatV1.14B232,2013-03-17 10:44:00,
2013-03-17 03:49:00,32.9,15.4,30.00,NW,322,10.0,18.0,48,0.00,,,0.00,0,WeatherCatV1.14B232,2013-03-17 10:49:00,
2013-03-17 03:54:00,32.8,15.8,30.00,NNW,334,4.0,18.0,49,0.00,,,0.00,0,WeatherCatV1.14B232,2013-03-17 10:54:00,
2013-03-17 03:59:00,32.8,15.3,30.00,NW,307,12.0,21.0,48,0.00,,,0.00,0,WeatherCatV1.14B232,2013-03-17 10:59:00,
2013-03-17 04:04:00,32.7,15.2,30.00,WNW,301,11.0,21.0,48,0.00,,,0.00,0,WeatherCatV1.14B232,2013-03-17 11:04:00,
2013-03-17 04:09:00,32.5,14.5,30.00,WNW,297,11.0,20.0,47,0.00,,,0.00,0,WeatherCatV1.14B232,2013-03-17 11:09:00,
2013-03-17 04:14:00,32.7,15.2,30.00,NW,306,14.0,22.0,48,0.00,,,0.00,0,WeatherCatV1.14B232,2013-03-17 11:14:00,
2013-03-17 04:19:00,32.8,15.3,30.00,WNW,299,17.0,22.0,48,0.00,,,0.00,0,WeatherCatV1.14B232,2013-03-17 11:19:00,
2013-03-17 04:24:00,32.7,15.7,30.00,WNW,283,15.0,20.0,49,0.00,,,0.00,0,WeatherCatV1.14B232,2013-03-17 11:24:00,
2013-03-17 04:29:00,32.5,15.5,29.99,WNW,293,16.0,24.0,49,0.00,,,0.00,0,WeatherCatV1.14B232,2013-03-17 11:29:00,
2013-03-17 04:34:00,32.4,15.9,29.99,WNW,293,11.0,14.0,50,0.00,,,0.00,0,WeatherCatV1.14B232,2013-03-17 11:34:00,
2013-03-17 04:39:00,31.9,16.3,29.99,WNW,283,11.0,15.0,52,0.00,,,0.00,0,WeatherCatV1.14B232,2013-03-17 11:39:00,
2013-03-17 04:44:00,31.8,17.1,29.99,WNW,303,12.0,18.0,54,0.00,,,0.00,0,WeatherCatV1.14B232,2013-03-17 11:44:00,
2013-03-17 04:49:00,31.6,16.9,29.99,WNW,293,12.0,19.0,54,0.00,,,0.00,0,WeatherCatV1.14B232,2013-03-17 11:49:00,
2013-03-17 04:54:00,31.5,17.2,29.99,West,267,15.0,19.0,55,0.00,,,0.00,0,WeatherCatV1.14B232,2013-03-17 11:54:00,
2013-03-17 04:59:00,31.5,17.2,29.99,WNW,302,12.0,18.0,55,0.00,,,0.00,0,WeatherCatV1.14B232,2013-03-17 11:59:00,
2013-03-17 05:04:00,31.5,17.2,29.99,NW,314,19.0,21.0,55,0.00,,,0.00,0,WeatherCatV1.14B232,2013-03-17 12:04:00,
2013-03-17 05:09:00,31.9,16.3,29.99,NW,306,17.0,18.0,52,0.00,,,0.00,0,WeatherCatV1.14B232,2013-03-17 12:09:00,
2013-03-17 05:14:00,31.9,16.7,30.02,WNW,303,16.0,20.0,53,0.00,,,0.00,0,WeatherCatV1.14B232,2013-03-17 12:14:00,
2013-03-17 05:19:00,31.9,16.7,30.02,WNW,293,17.0,21.0,53,0.00,,,0.00,0,WeatherCatV1.14B232,2013-03-17 12:19:00,
2013-03-17 05:24:00,31.9,16.3,30.02,NW,310,15.0,21.0,52,0.00,,,0.00,0,WeatherCatV1.14B232,2013-03-17 12:24:00,
2013-03-17 05:29:00,32.1,16.0,30.02,WNW,299,8.0,19.0,51,0.00,,,0.00,0,WeatherCatV1.14B232,2013-03-17 12:29:00,
2013-03-17 05:34:00,32.4,15.4,30.02,WNW,302,7.0,20.0,49,0.00,,,0.00,0,WeatherCatV1.14B232,2013-03-17 12:34:00,
2013-03-17 05:39:00,32.5,15.0,30.02,WNW,301,13.0,20.0,48,0.00,,,0.00,0,WeatherCatV1.14B232,2013-03-17 12:39:00,
2013-03-17 05:44:00,32.4,16.3,30.02,WNW,303,13.0,13.0,51,0.00,,,0.00,0,WeatherCatV1.14B232,2013-03-17 12:44:00,
2013-03-17 05:49:00,31.8,15.8,30.02,WNW,283,9.0,15.0,51,0.00,,,0.00,0,WeatherCatV1.14B232,2013-03-17 12:49:00,
2013-03-17 05:54:00,31.6,14.7,30.02,WNW,283,11.0,17.0,49,0.00,,,0.00,0,WeatherCatV1.14B232,2013-03-17 12:54:00,
2013-03-17 05:59:00,31.8,14.4,30.02,NW,305,12.0,15.0,48,0.00,,,0.00,0,WeatherCatV1.14B232,2013-03-17 12:59:00,
2013-03-17 06:04:00,31.6,14.2,30.02,WNW,303,12.0,16.0,48,0.00,,,0.00,0,WeatherCatV1.14B232,2013-03-17 13:04:00,
2013-03-17 06:09:00,31.8,12.9,30.02,WNW,299,8.0,16.0,45,0.00,,,0.00,0,WeatherCatV1.14B232,2013-03-17 13:09:00,
2013-03-17 06:14:00,31.9,12.5,30.04,NW,317,5.0,14.0,44,0.00,,,0.00,0,WeatherCatV1.14B232,2013-03-17 13:14:00,
2013-03-17 06:19:00,31.8,12.9,30.04,WNW,293,7.0,14.0,45,0.00,,,0.00,0,WeatherCatV1.14B232,2013-03-17 13:19:00,
2013-03-17 06:24:00,31.8,12.4,30.04,WNW,300,13.0,13.0,44,0.00,,,0.00,0,WeatherCatV1.14B232,2013-03-17 13:24:00,
2013-03-17 06:29:00,31.8,10.8,30.04,WNW,298,7.0,12.0,41,0.00,,,0.00,0,WeatherCatV1.14B232,2013-03-17 13:29:00,
2013-03-17 06:34:00,32.2,10.1,30.04,NW,314,10.0,16.0,39,0.00,,,0.00,0,WeatherCatV1.14B232,2013-03-17 13:34:00,
2013-03-17 06:39:00,32.5,9.7,30.04,NW,324,9.0,13.0,38,0.00,,,0.00,0,WeatherCatV1.14B232,2013-03-17 13:39:00,
2013-03-17 06:44:00,32.7,9.9,30.03,NW,304,14.0,16.0,38,0.00,,,0.00,0,WeatherCatV1.14B232,2013-03-17 13:44:00,
2013-03-17 06:49:00,32.7,9.3,30.03,WNW,283,10.0,16.0,37,0.00,,,0.00,0,WeatherCatV1.14B232,2013-03-17 13:49:00,
2013-03-17 06:54:00,32.7,9.3,30.03,NW,310,10.0,15.0,37,0.00,,,0.00,0,WeatherCatV1.14B232,2013-03-17 13:54:00,
2013-03-17 06:59:00,32.4,9.7,30.05,WNW,293,9.0,15.0,38,0.00,,,0.00,0,WeatherCatV1.14B232,2013-03-17 13:59:00,
2013-03-17 07:04:00,32.1,10.0,30.05,WNW,293,12.0,15.0,39,0.00,,,0.00,0,WeatherCatV1.14B232,2013-03-17 14:04:00,
2013-03-17 07:09:00,31.9,9.2,30.05,West,271,17.0,17.0,38,0.00,,,0.00,5,WeatherCatV1.14B232,2013-03-17 14:09:00,
2013-03-17 07:14:00,31.9,9.2,30.07,WNW,297,9.0,17.0,38,0.00,,,0.00,9,WeatherCatV1.14B232,2013-03-17 14:14:00,
2013-03-17 07:19:00,31.9,8.6,30.07,NW,310,19.0,19.0,37,0.00,,,0.00,11,WeatherCatV1.14B232,2013-03-17 14:19:00,
2013-03-17 07:24:00,31.8,8.5,30.07,WNW,297,12.0,17.0,37,0.00,,,0.00,12,WeatherCatV1.14B232,2013-03-17 14:24:00,
2013-03-17 07:29:00,31.5,8.9,30.08,NW,310,14.0,16.0,38,0.00,,,0.00,16,WeatherCatV1.14B232,2013-03-17 14:29:00,
2013-03-17 07:34:00,31.0,9.5,30.08,WNW,297,9.0,17.0,40,0.00,,,0.00,18,WeatherCatV1.14B232,2013-03-17 14:34:00,
2013-03-17 07:39:00,30.9,9.5,30.08,NW,312,6.0,18.0,40,0.00,,,0.00,19,WeatherCatV1.14B232,2013-03-17 14:39:00,
2013-03-17 07:44:00,31.3,8.7,30.09,WNW,293,11.0,15.0,38,0.00,,,0.00,21,WeatherCatV1.14B232,2013-03-17 14:44:00,
2013-03-17 07:49:00,31.5,8.3,30.09,NW,318,13.0,18.0,37,0.00,,,0.00,46,WeatherCatV1.14B232,2013-03-17 14:49:00,
2013-03-17 07:54:00,31.9,8.0,30.09,WNW,293,13.0,17.0,36,0.00,,,0.00,63,WeatherCatV1.14B232,2013-03-17 14:54:00,
2013-03-17 07:59:00,32.5,7.3,30.08,WNW,288,12.0,16.0,34,0.00,,,0.00,90,WeatherCatV1.14B232,2013-03-17 14:59:00,
2013-03-17 08:04:00,32.9,8.3,30.08,West,272,10.0,17.0,35,0.00,,,0.00,107,WeatherCatV1.14B232,2013-03-17 15:04:00,
2013-03-17 08:09:00,33.2,8.5,30.08,NW,309,15.0,18.0,35,0.00,,,0.00,125,WeatherCatV1.14B232,2013-03-17 15:09:00,
2013-03-17 08:14:00,33.5,8.2,30.09,NW,312,13.0,16.0,34,0.00,,,0.00,141,WeatherCatV1.14B232,2013-03-17 15:14:00,
2013-03-17 08:19:00,33.4,9.4,30.09,WNW,288,9.0,12.0,36,0.00,,,0.00,156,WeatherCatV1.14B232,2013-03-17 15:19:00,
2013-03-17 08:24:00,33.2,9.2,30.09,WNW,288,15.0,15.0,36,0.00,,,0.00,172,WeatherCatV1.14B232,2013-03-17 15:24:00,
2013-03-17 08:29:00,33.2,9.8,30.11,WNW,297,10.0,12.0,37,0.00,,,0.00,188,WeatherCatV1.14B232,2013-03-17 15:29:00,
2013-03-17 08:34:00,33.2,8.5,30.11,WNW,299,10.0,15.0,35,0.00,,,0.00,206,WeatherCatV1.14B232,2013-03-17 15:34:00,
2013-03-17 08:39:00,33.5,8.8,30.11,NW,307,6.0,12.0,35,0.00,,,0.00,221,WeatherCatV1.14B232,2013-03-17 15:39:00,
2013-03-17 08:44:00,33.8,8.4,30.10,NW,311,9.0,12.0,34,0.00,,,0.00,241,WeatherCatV1.14B232,2013-03-17 15:44:00,
2013-03-17 08:49:00,34.1,6.7,30.10,NW,317,6.0,15.0,31,0.00,,,0.00,258,WeatherCatV1.14B232,2013-03-17 15:49:00,
2013-03-17 08:54:00,34.4,6.2,30.10,West,279,6.0,12.0,30,0.00,,,0.00,276,WeatherCatV1.14B232,2013-03-17 15:54:00,
2013-03-17 08:59:00,34.7,5.7,30.10,WNW,288,5.0,13.0,29,0.00,,,0.00,294,WeatherCatV1.14B232,2013-03-17 15:59:00,
2013-03-17 09:04:00,35.2,5.4,30.10,WNW,293,7.0,16.0,28,0.00,,,0.00,309,WeatherCatV1.14B232,2013-03-17 16:04:00,
2013-03-17 09:09:00,35.5,5.7,30.10,NNW,331,6.0,15.0,28,0.00,,,0.00,327,WeatherCatV1.14B232,2013-03-17 16:09:00,
2013-03-17 09:14:00,35.9,6.0,30.09,WNW,297,10.0,12.0,28,0.00,,,0.00,345,WeatherCatV1.14B232,2013-03-17 16:14:00,
2013-03-17 09:19:00,36.0,6.1,30.09,NW,310,7.0,14.0,28,0.00,,,0.00,362,WeatherCatV1.14B232,2013-03-17 16:19:00,
2013-03-17 09:24:00,36.5,6.5,30.09,WNW,297,5.0,13.0,28,0.00,,,0.00,380,WeatherCatV1.14B232,2013-03-17 16:24:00,
2013-03-17 09:29:00,36.8,6.8,30.10,WNW,288,4.0,8.0,28,0.00,,,0.00,396,WeatherCatV1.14B232,2013-03-17 16:29:00,
2013-03-17 09:34:00,37.0,5.3,30.10,WNW,288,5.0,14.0,26,0.00,,,0.00,413,WeatherCatV1.14B232,2013-03-17 16:34:00,
2013-03-17 09:39:00,37.3,3.9,30.10,West,263,7.0,11.0,24,0.00,,,0.00,427,WeatherCatV1.14B232,2013-03-17 16:39:00,
2013-03-17 09:44:00,37.8,6.0,30.09,West,270,5.0,9.0,26,0.00,,,0.00,443,WeatherCatV1.14B232,2013-03-17 16:44:00,
2013-03-17 09:49:00,38.0,5.3,30.09,West,266,5.0,10.0,25,0.00,,,0.00,461,WeatherCatV1.14B232,2013-03-17 16:49:00,
2013-03-17 09:54:00,38.5,4.9,30.09,West,274,2.0,9.0,24,0.00,,,0.00,476,WeatherCatV1.14B232,2013-03-17 16:54:00,
2013-03-17 09:59:00,38.9,6.1,30.09,WNW,288,6.0,9.0,25,0.00,,,0.00,492,WeatherCatV1.14B232,2013-03-17 16:59:00,
2013-03-17 10:04:00,39.1,3.5,30.09,WNW,288,8.0,11.0,22,0.00,,,0.00,508,WeatherCatV1.14B232,2013-03-17 17:04:00,
2013-03-17 10:09:00,39.3,4.6,30.09,WNW,301,4.0,7.0,23,0.00,,,0.00,520,WeatherCatV1.14B232,2013-03-17 17:09:00,
2013-03-17 10:14:00,39.6,3.9,30.10,WNW,297,5.0,14.0,22,0.00,,,0.00,534,WeatherCatV1.14B232,2013-03-17 17:14:00,
2013-03-17 10:19:00,39.9,2.1,30.10,West,276,4.0,12.0,20,0.00,,,0.00,550,WeatherCatV1.14B232,2013-03-17 17:19:00,
2013-03-17 10:24:00,40.1,2.3,30.10,WNW,293,12.0,12.0,20,0.00,,,0.00,564,WeatherCatV1.14B232,2013-03-17 17:24:00,
2013-03-17 10:29:00,40.2,1.3,30.10,West,276,9.0,12.0,19,0.00,,,0.00,578,WeatherCatV1.14B232,2013-03-17 17:29:00,
2013-03-17 10:34:00,40.3,1.4,30.10,West,261,10.0,13.0,19,0.00,,,0.00,592,WeatherCatV1.14B232,2013-03-17 17:34:00,
2013-03-17 10:39:00,40.3,0.2,30.10,West,265,6.0,12.0,18,0.00,,,0.00,606,WeatherCatV1.14B232,2013-03-17 17:39:00,
2013-03-17 10:44:00,40.5,1.5,30.08,WNW,288,6.0,11.0,19,0.00,,,0.00,619,WeatherCatV1.14B232,2013-03-17 17:44:00,
2013-03-17 10:49:00,40.8,1.8,30.08,WNW,293,10.0,13.0,19,0.00,,,0.00,631,WeatherCatV1.14B232,2013-03-17 17:49:00,
2013-03-17 10:54:00,41.1,3.1,30.08,WNW,288,12.0,16.0,20,0.00,,,0.00,642,WeatherCatV1.14B232,2013-03-17 17:54:00,
2013-03-17 10:59:00,41.2,1.0,30.08,WNW,302,11.0,15.0,18,0.00,,,0.00,654,WeatherCatV1.14B232,2013-03-17 17:59:00,
2013-03-17 11:04:00,41.3,1.0,30.08,North,0,9.0,17.0,18,0.00,,,0.00,661,WeatherCatV1.14B232,2013-03-17 18:04:00,
2013-03-17 11:09:00,41.5,1.2,30.08,WNW,288,12.0,15.0,18,0.00,,,0.00,677,WeatherCatV1.14B232,2013-03-17 18:09:00,
2013-03-17 11:14:00,41.6,1.3,30.09,NW,312,9.0,13.0,18,0.00,,,0.00,687,WeatherCatV1.14B232,2013-03-17 18:14:00,
2013-03-17 11:19:00,41.8,1.4,30.09,WNW,301,10.0,15.0,18,0.00,,,0.00,698,WeatherCatV1.14B232,2013-03-17 18:19:00,
2013-03-17 11:24:00,41.9,1.5,30.09,WSW,244,6.0,16.0,18,0.00,,,0.00,707,WeatherCatV1.14B232,2013-03-17 18:24:00,
2013-03-17 11:29:00,42.2,1.8,30.09,WSW,255,7.0,13.0,18,0.00,,,0.00,728,WeatherCatV1.14B232,2013-03-17 18:29:00,
2013-03-17 11:34:00,42.5,3.2,30.09,NW,309,5.0,12.0,19,0.00,,,0.00,721,WeatherCatV1.14B232,2013-03-17 18:34:00,
2013-03-17 11:39:00,42.8,1.0,30.09,WNW,288,7.0,15.0,17,0.00,,,0.00,728,WeatherCatV1.14B232,2013-03-17 18:39:00,
2013-03-17 11:44:00,43.1,2.5,30.09,WNW,303,10.0,14.0,18,0.00,,,0.00,749,WeatherCatV1.14B232,2013-03-17 18:44:00,
2013-03-17 11:49:00,43.2,1.4,30.09,West,276,10.0,14.0,17,0.00,,,0.00,754,WeatherCatV1.14B232,2013-03-17 18:49:00,
2013-03-17 11:54:00,43.5,2.8,30.09,West,279,5.0,14.0,18,0.00,,,0.00,763,WeatherCatV1.14B232,2013-03-17 18:54:00,
2013-03-17 11:59:00,43.6,1.7,30.08,WSW,253,6.0,13.0,17,0.00,,,0.00,768,WeatherCatV1.14B232,2013-03-17 18:59:00,
2013-03-17 12:04:00,43.8,3.1,30.08,WNW,298,13.0,15.0,18,0.00,,,0.00,775,WeatherCatV1.14B232,2013-03-17 19:04:00,
2013-03-17 12:09:00,43.8,3.1,30.08,West,273,8.0,15.0,18,0.00,,,0.00,782,WeatherCatV1.14B232,2013-03-17 19:09:00,
2013-03-17 12:14:00,43.6,2.9,30.09,West,274,3.0,14.0,18,0.00,,,0.00,788,WeatherCatV1.14B232,2013-03-17 19:14:00,
2013-03-17 12:19:00,43.8,3.1,30.09,WNW,283,9.0,14.0,18,0.00,,,0.00,789,WeatherCatV1.14B232,2013-03-17 19:19:00,
2013-03-17 12:24:00,44.1,5.6,30.09,West,259,6.0,17.0,20,0.00,,,0.00,796,WeatherCatV1.14B232,2013-03-17 19:24:00,
2013-03-17 12:29:00,44.2,6.8,30.09,WNW,301,7.0,9.0,21,0.00,,,0.00,800,WeatherCatV1.14B232,2013-03-17 19:29:00,
2013-03-17 12:34:00,44.1,4.5,30.09,WSW,239,5.0,10.0,19,0.00,,,0.00,807,WeatherCatV1.14B232,2013-03-17 19:34:00,
2013-03-17 12:39:00,44.3,5.8,30.09,West,275,8.0,15.0,20,0.00,,,0.00,810,WeatherCatV1.14B232,2013-03-17 19:39:00,
2013-03-17 12:44:00,44.3,6.9,30.09,West,269,9.0,15.0,21,0.00,,,0.00,795,WeatherCatV1.14B232,2013-03-17 19:44:00,
2013-03-17 12:49:00,44.9,7.4,30.09,West,275,9.0,11.0,21,0.00,,,0.00,807,WeatherCatV1.14B232,2013-03-17 19:49:00,
2013-03-17 12:54:00,45.5,6.8,30.09,WNW,288,6.0,13.0,20,0.00,,,0.00,833,WeatherCatV1.14B232,2013-03-17 19:54:00,
2013-03-17 12:59:00,46.1,9.4,30.07,WSW,253,2.0,6.0,22,0.00,,,0.00,729,WeatherCatV1.14B232,2013-03-17 19:59:00,
2013-03-17 13:04:00,46.5,7.6,30.07,WNW,283,9.0,14.0,20,0.00,,,0.00,773,WeatherCatV1.14B232,2013-03-17 20:04:00,
2013-03-17 13:09:00,46.4,8.6,30.07,WSW,237,5.0,11.0,21,0.00,,,0.00,840,WeatherCatV1.14B232,2013-03-17 20:09:00,
2013-03-17 13:14:00,45.8,7.0,30.05,West,265,2.0,9.0,20,0.00,,,0.00,812,WeatherCatV1.14B232,2013-03-17 20:14:00,
2013-03-17 13:19:00,46.1,8.4,30.05,WNW,293,7.0,10.0,21,0.00,,,0.00,710,WeatherCatV1.14B232,2013-03-17 20:19:00,
2013-03-17 13:24:00,46.1,7.3,30.05,WNW,297,3.0,5.0,20,0.00,,,0.00,772,WeatherCatV1.14B232,2013-03-17 20:24:00,
2013-03-17 13:29:00,47.1,7.0,30.04,West,266,6.0,12.0,19,0.00,,,0.00,795,WeatherCatV1.14B232,2013-03-17 20:29:00,
2013-03-17 13:34:00,46.7,7.8,30.04,SW,232,10.0,16.0,20,0.00,,,0.00,810,WeatherCatV1.14B232,2013-03-17 20:34:00,
2013-03-17 13:39:00,45.8,7.0,30.04,NW,307,13.0,14.0,20,0.00,,,0.00,793,WeatherCatV1.14B232,2013-03-17 20:39:00,
2013-03-17 13:44:00,45.4,8.8,30.05,North,354,7.0,14.0,22,0.00,,,0.00,768,WeatherCatV1.14B232,2013-03-17 20:44:00,
2013-03-17 13:49:00,45.4,6.7,30.05,NW,307,10.0,10.0,20,0.00,,,0.00,715,WeatherCatV1.14B232,2013-03-17 20:49:00,
2013-03-17 13:54:00,45.2,6.5,30.05,WNW,288,4.0,13.0,20,0.00,,,0.00,758,WeatherCatV1.14B232,2013-03-17 20:54:00,
2013-03-17 13:59:00,45.4,7.8,30.04,WNW,288,9.0,12.0,21,0.00,,,0.00,817,WeatherCatV1.14B232,2013-03-17 20:59:00,
2013-03-17 14:04:00,45.4,6.7,30.04,WSW,255,4.0,15.0,20,0.00,,,0.00,821,WeatherCatV1.14B232,2013-03-17 21:04:00,
2013-03-17 14:09:00,45.5,6.8,30.04,WNW,299,9.0,18.0,20,0.00,,,0.00,814,WeatherCatV1.14B232,2013-03-17 21:09:00,
2013-03-17 14:14:00,45.2,7.6,30.03,NW,313,16.0,16.0,21,0.00,,,0.00,810,WeatherCatV1.14B232,2013-03-17 21:14:00,
2013-03-17 14:19:00,45.2,7.6,30.03,WNW,288,10.0,14.0,21,0.00,,,0.00,789,WeatherCatV1.14B232,2013-03-17 21:19:00,
2013-03-17 14:24:00,45.4,7.8,30.03,NW,305,12.0,16.0,21,0.00,,,0.00,749,WeatherCatV1.14B232,2013-03-17 21:24:00,
2013-03-17 14:29:00,45.2,7.6,30.03,NW,311,17.0,19.0,21,0.00,,,0.00,722,WeatherCatV1.14B232,2013-03-17 21:29:00,
2013-03-17 14:34:00,45.2,6.5,30.03,WNW,293,21.0,21.0,20,0.00,,,0.00,745,WeatherCatV1.14B232,2013-03-17 21:34:00,
2013-03-17 14:39:00,45.1,7.5,30.03,WNW,288,10.0,19.0,21,0.00,,,0.00,761,WeatherCatV1.14B232,2013-03-17 21:39:00,
2013-03-17 14:44:00,45.2,9.6,30.03,NW,305,11.0,18.0,23,0.00,,,0.00,756,WeatherCatV1.14B232,2013-03-17 21:44:00,
2013-03-17 14:49:00,45.2,8.6,30.03,SW,232,6.0,15.0,22,0.00,,,0.00,754,WeatherCatV1.14B232,2013-03-17 21:49:00,
2013-03-17 14:54:00,45.2,9.6,30.03,West,268,11.0,18.0,23,0.00,,,0.00,749,WeatherCatV1.14B232,2013-03-17 21:54:00,
2013-03-17 14:59:00,45.4,8.8,30.02,WNW,300,14.0,18.0,22,0.00,,,0.00,722,WeatherCatV1.14B232,2013-03-17 21:59:00,
2013-03-17 15:04:00,45.4,9.8,30.02,SW,235,10.0,20.0,23,0.00,,,0.00,735,WeatherCatV1.14B232,2013-03-17 22:04:00,
2013-03-17 15:09:00,45.5,9.9,30.02,WNW,288,5.0,15.0,23,0.00,,,0.00,715,WeatherCatV1.14B232,2013-03-17 22:09:00,
2013-03-17 15:14:00,45.7,11.0,30.02,NW,311,11.0,24.0,24,0.00,,,0.00,686,WeatherCatV1.14B232,2013-03-17 22:14:00,
2013-03-17 15:19:00,45.7,10.1,30.02,WNW,293,10.0,17.0,23,0.00,,,0.00,670,WeatherCatV1.14B232,2013-03-17 22:19:00,
2013-03-17 15:24:00,45.7,11.0,30.02,NW,316,15.0,19.0,24,0.00,,,0.00,664,WeatherCatV1.14B232,2013-03-17 22:24:00,
2013-03-17 15:29:00,45.7,11.9,30.02,West,270,14.0,19.0,25,0.00,,,0.00,657,WeatherCatV1.14B232,2013-03-17 22:29:00,
2013-03-17 15:34:00,45.5,11.7,30.02,NW,308,18.0,18.0,25,0.00,,,0.00,628,WeatherCatV1.14B232,2013-03-17 22:34:00,
2013-03-17 15:39:00,45.4,12.5,30.02,WNW,288,18.0,22.0,26,0.00,,,0.00,608,WeatherCatV1.14B232,2013-03-17 22:39:00,
2013-03-17 15:44:00,45.2,13.2,30.03,WNW,283,10.0,17.0,27,0.00,,,0.00,612,WeatherCatV1.14B232,2013-03-17 22:44:00,
2013-03-17 15:49:00,45.4,12.5,30.03,West,266,13.0,19.0,26,0.00,,,0.00,513,WeatherCatV1.14B232,2013-03-17 22:49:00,
2013-03-17 15:54:00,45.2,11.5,30.03,West,261,15.0,24.0,25,0.00,,,0.00,531,WeatherCatV1.14B232,2013-03-17 22:54:00,
2013-03-17 15:59:00,45.2,12.4,30.02,WNW,283,6.0,14.0,26,0.00,,,0.00,552,WeatherCatV1.14B232,2013-03-17 22:59:00,
2013-03-17 16:04:00,45.4,13.4,30.02,WNW,293,12.0,20.0,27,0.00,,,0.00,520,WeatherCatV1.14B232,2013-03-17 23:04:00,
2013-03-17 16:09:00,45.5,13.5,30.02,West,269,12.0,22.0,27,0.00,,,0.00,557,WeatherCatV1.14B232,2013-03-17 23:09:00,
2013-03-17 16:14:00,45.5,14.3,30.03,WSW,257,17.0,19.0,28,0.00,,,0.00,482,WeatherCatV1.14B232,2013-03-17 23:14:00,
2013-03-17 16:19:00,45.5,14.3,30.03,WNW,293,15.0,18.0,28,0.00,,,0.00,566,WeatherCatV1.14B232,2013-03-17 23:19:00,
2013-03-17 16:24:00,45.2,15.6,30.03,WNW,283,15.0,23.0,30,0.00,,,0.00,571,WeatherCatV1.14B232,2013-03-17 23:24:00,
2013-03-17 16:29:00,45.2,15.6,30.04,WNW,288,10.0,22.0,30,0.00,,,0.00,534,WeatherCatV1.14B232,2013-03-17 23:29:00,
2013-03-17 16:34:00,45.4,14.2,30.04,SW,232,9.0,24.0,28,0.00,,,0.00,471,WeatherCatV1.14B232,2013-03-17 23:34:00,
2013-03-17 16:39:00,45.4,15.0,30.04,WNW,283,18.0,23.0,29,0.00,,,0.00,466,WeatherCatV1.14B232,2013-03-17 23:39:00,
2013-03-17 16:44:00,45.5,16.6,30.04,West,266,18.0,24.0,31,0.00,,,0.00,480,WeatherCatV1.14B232,2013-03-17 23:44:00,
2013-03-17 16:49:00,45.2,13.2,30.04,WNW,283,21.0,21.0,27,0.00,,,0.00,454,WeatherCatV1.14B232,2013-03-17 23:49:00,
2013-03-17 16:54:00,44.9,16.8,30.04,NNE,28,3.0,17.0,32,0.00,,,0.00,404,WeatherCatV1.14B232,2013-03-17 23:54:00,
2013-03-17 16:59:00,44.8,15.3,30.04,WNW,283,15.0,24.0,30,0.00,,,0.00,439,WeatherCatV1.14B232,2013-03-17 23:59:00,
2013-03-17 17:04:00,44.5,15.8,30.04,WNW,293,12.0,24.0,31,0.00,,,0.00,448,WeatherCatV1.14B232,2013-03-18 00:04:00,
2013-03-17 17:09:00,44.8,17.5,30.04,WNW,293,7.0,15.0,33,0.00,,,0.00,424,WeatherCatV1.14B232,2013-03-18 00:09:00,
2013-03-17 17:14:00,45.2,17.8,30.04,WNW,297,11.0,14.0,33,0.00,,,0.00,417,WeatherCatV1.14B232,2013-03-18 00:14:00,
2013-03-17 17:19:00,45.1,14.8,30.04,WNW,293,17.0,21.0,29,0.00,,,0.00,299,WeatherCatV1.14B232,2013-03-18 00:19:00,
2013-03-17 17:24:00,44.6,17.3,30.04,West,261,6.0,19.0,33,0.00,,,0.00,346,WeatherCatV1.14B232,2013-03-18 00:24:00,
2013-03-17 17:29:00,44.6,17.3,30.04,West,261,14.0,21.0,33,0.00,,,0.00,352,WeatherCatV1.14B232,2013-03-18 00:29:00,
2013-03-17 17:34:00,44.5,14.2,30.04,NW,309,17.0,21.0,29,0.00,,,0.00,325,WeatherCatV1.14B232,2013-03-18 00:34:00,
2013-03-17 17:39:00,44.3,17.7,30.04,NW,320,10.0,19.0,34,0.00,,,0.00,287,WeatherCatV1.14B232,2013-03-18 00:39:00,
2013-03-17 17:44:00,44.3,19.7,30.04,West,279,5.0,21.0,37,0.00,,,0.00,272,WeatherCatV1.14B232,2013-03-18 00:44:00,
2013-03-17 17:49:00,44.2,20.8,30.04,WNW,283,9.0,17.0,39,0.00,,,0.00,255,WeatherCatV1.14B232,2013-03-18 00:49:00,
2013-03-17 17:54:00,44.2,20.2,30.04,NNW,341,13.0,22.0,38,0.00,,,0.00,239,WeatherCatV1.14B232,2013-03-18 00:54:00,
2013-03-17 17:59:00,44.1,18.9,30.05,NW,315,12.0,17.0,36,0.00,,,0.00,211,WeatherCatV1.14B232,2013-03-18 00:59:00,
2013-03-17 18:04:00,43.9,18.7,30.05,WSW,253,11.0,20.0,36,0.00,,,0.00,199,WeatherCatV1.14B232,2013-03-18 01:04:00,
2013-03-17 18:09:00,43.9,21.2,30.05,WNW,283,10.0,15.0,40,0.00,,,0.00,171,WeatherCatV1.14B232,2013-03-18 01:09:00,
2013-03-17 18:14:00,43.6,20.3,30.05,WNW,283,10.0,21.0,39,0.00,,,0.00,109,WeatherCatV1.14B232,2013-03-18 01:14:00,
2013-03-17 18:19:00,43.2,19.9,30.05,West,259,5.0,15.0,39,0.00,,,0.00,76,WeatherCatV1.14B232,2013-03-18 01:19:00,
2013-03-17 18:24:00,42.9,20.8,30.05,NW,322,11.0,17.0,41,0.00,,,0.00,100,WeatherCatV1.14B232,2013-03-18 01:24:00,
2013-03-17 18:29:00,42.6,20.6,30.06,NW,306,6.0,16.0,41,0.00,,,0.00,65,WeatherCatV1.14B232,2013-03-18 01:29:00,
2013-03-17 18:34:00,42.2,20.8,30.06,West,266,9.0,17.0,42,0.00,,,0.00,46,WeatherCatV1.14B232,2013-03-18 01:34:00,
2013-03-17 18:39:00,41.9,22.1,30.06,WNW,283,15.0,15.0,45,0.00,,,0.00,32,WeatherCatV1.14B232,2013-03-18 01:39:00,
2013-03-17 18:44:00,41.5,21.8,30.05,WSW,255,16.0,17.0,45,0.00,,,0.00,23,WeatherCatV1.14B232,2013-03-18 01:44:00,
2013-03-17 18:49:00,41.2,20.4,30.05,West,277,7.0,16.0,43,0.00,,,0.00,18,WeatherCatV1.14B232,2013-03-18 01:49:00,
2013-03-17 18:54:00,41.1,20.3,30.05,West,269,15.0,16.0,43,0.00,,,0.00,16,WeatherCatV1.14B232,2013-03-18 01:54:00,
2013-03-17 18:59:00,40.8,20.6,30.07,West,261,10.0,16.0,44,0.00,,,0.00,11,WeatherCatV1.14B232,2013-03-18 01:59:00,
2013-03-17 19:04:00,40.5,20.3,30.07,West,278,6.0,15.0,44,0.00,,,0.00,5,WeatherCatV1.14B232,2013-03-18 02:04:00,
2013-03-17 19:09:00,40.2,19.5,30.07,West,271,7.0,14.0,43,0.00,,,0.00,0,WeatherCatV1.14B232,2013-03-18 02:09:00,
2013-03-17 19:14:00,39.9,19.2,30.06,WNW,302,6.0,17.0,43,0.00,,,0.00,0,WeatherCatV1.14B232,2013-03-18 02:14:00,
2013-03-17 19:19:00,39.6,19.5,30.06,NW,304,7.0,12.0,44,0.00,,,0.00,0,WeatherCatV1.14B232,2013-03-18 02:19:00,
2013-03-17 19:24:00,39.3,20.3,30.06,NW,312,11.0,17.0,46,0.00,,,0.00,0,WeatherCatV1.14B232,2013-03-18 02:24:00,
2013-03-17 19:29:00,39.2,20.2,30.06,West,266,5.0,10.0,46,0.00,,,0.00,0,WeatherCatV1.14B232,2013-03-18 02:29:00,
2013-03-17 19:34:00,39.1,20.1,30.06,NW,307,12.0,14.0,46,0.00,,,0.00,0,WeatherCatV1.14B232,2013-03-18 02:34:00,
2013-03-17 19:39:00,38.9,19.9,30.06,WNW,288,7.0,15.0,46,0.00,,,0.00,0,WeatherCatV1.14B232,2013-03-18 02:39:00,
2013-03-17 19:44:00,38.8,19.3,30.07,West,272,6.0,12.0,45,0.00,,,0.00,0,WeatherCatV1.14B232,2013-03-18 02:44:00,
2013-03-17 19:49:00,38.6,18.1,30.07,WSW,249,3.0,15.0,43,0.00,,,0.00,0,WeatherCatV1.14B232,2013-03-18 02:49:00,
2013-03-17 19:54:00,38.6,18.1,30.07,WNW,288,8.0,11.0,43,0.00,,,0.00,0,WeatherCatV1.14B232,2013-03-18 02:54:00,
2013-03-17 19:59:00,38.6,17.0,30.07,WNW,297,10.0,10.0,41,0.00,,,0.00,0,WeatherCatV1.14B232,2013-03-18 02:59:00,
2013-03-17 20:04:00,38.5,16.9,30.07,West,276,7.0,14.0,41,0.00,,,0.00,0,WeatherCatV1.14B232,2013-03-18 03:04:00,
2013-03-17 20:09:00,38.5,16.3,30.07,WNW,293,7.0,12.0,40,0.00,,,0.00,0,WeatherCatV1.14B232,2013-03-18 03:09:00,
2013-03-17 20:14:00,38.3,16.1,30.07,WNW,293,7.0,9.0,40,0.00,,,0.00,0,WeatherCatV1.14B232,2013-03-18 03:14:00,
2013-03-17 20:19:00,38.2,15.4,30.07,West,276,7.0,11.0,39,0.00,,,0.00,0,WeatherCatV1.14B232,2013-03-18 03:19:00,
2013-03-17 20:24:00,38.0,14.7,30.07,WNW,288,5.0,12.0,38,0.00,,,0.00,0,WeatherCatV1.14B232,2013-03-18 03:24:00,
2013-03-17 20:29:00,37.9,14.6,30.07,WNW,293,6.0,13.0,38,0.00,,,0.00,0,WeatherCatV1.14B232,2013-03-18 03:29:00,
2013-03-17 20:34:00,37.8,15.1,30.07,West,265,6.0,11.0,39,0.00,,,0.00,0,WeatherCatV1.14B232,2013-03-18 03:34:00,
2013-03-17 20:39:00,37.6,12.5,30.07,WNW,283,10.0,15.0,35,0.00,,,0.00,0,WeatherCatV1.14B232,2013-03-18 03:39:00,
2013-03-17 20:44:00,37.6,11.1,30.07,WNW,293,11.0,14.0,33,0.00,,,0.00,0,WeatherCatV1.14B232,2013-03-18 03:44:00,
2013-03-17 20:49:00,37.6,10.4,30.07,WNW,288,9.0,10.0,32,0.00,,,0.00,0,WeatherCatV1.14B232,2013-03-18 03:49:00,
2013-03-17 20:54:00,37.6,9.0,30.07,WNW,293,12.0,12.0,30,0.00,,,0.00,0,WeatherCatV1.14B232,2013-03-18 03:54:00,
2013-03-17 20:59:00,37.8,8.4,30.08,WNW,300,6.0,12.0,29,0.00,,,0.00,0,WeatherCatV1.14B232,2013-03-18 03:59:00,
2013-03-17 21:01:00,37.8,8.4,30.08,WNW,283,3.0,10.0,29,0.00,,,0.00,0,WeatherCatV1.14B232,2013-03-18 04:01:00,
2013-03-17 21:07:00,37.6,7.5,30.08,West,273,6.0,12.0,28,0.00,,,0.00,0,WeatherCatV1.14B232,2013-03-18 04:07:00,
2013-03-17 21:09:00,37.8,7.7,30.08,WNW,288,6.0,14.0,28,0.00,,,0.00,0,WeatherCatV1.14B232,2013-03-18 04:09:00,
2013-03-17 21:14:00,37.8,6.9,30.08,WNW,299,5.0,9.0,27,0.00,,,0.00,0,WeatherCatV1.14B232,2013-03-18 04:14:00,
2013-03-17 21:19:00,37.9,6.1,30.05,West,278,5.0,11.0,26,0.00,,,0.00,0,WeatherCatV1.14B232,2013-03-18 04:19:00,
2013-03-17 21:24:00,37.9,6.1,30.05,WSW,255,9.0,10.0,26,0.00,,,0.00,0,WeatherCatV1.14B232,2013-03-18 04:24:00,
2013-03-17 21:29:00,37.9,6.1,30.05,WNW,288,3.0,11.0,26,0.00,,,0.00,0,WeatherCatV1.14B232,2013-03-18 04:29:00,
2013-03-17 21:34:00,37.8,5.2,30.05,West,270,12.0,12.0,25,0.00,,,0.00,0,WeatherCatV1.14B232,2013-03-18 04:34:00,
2013-03-17 21:39:00,37.8,5.2,30.05,WNW,283,2.0,7.0,25,0.00,,,0.00,0,WeatherCatV1.14B232,2013-03-18 04:39:00,
2013-03-17 21:44:00,37.8,4.3,30.05,SSW,207,8.0,13.0,24,0.00,,,0.00,0,WeatherCatV1.14B232,2013-03-18 04:44:00,
2013-03-17 21:49:00,37.8,3.4,30.06,WSW,255,3.0,14.0,23,0.00,,,0.00,0,WeatherCatV1.14B232,2013-03-18 04:49:00,
2013-03-17 21:54:00,37.8,3.4,30.06,WNW,297,9.0,11.0,23,0.00,,,0.00,0,WeatherCatV1.14B232,2013-03-18 04:54:00,
2013-03-17 21:59:00,37.8,4.3,30.06,West,269,5.0,10.0,24,0.00,,,0.00,0,WeatherCatV1.14B232,2013-03-18 04:59:00,
2013-03-17 22:04:00,37.8,4.3,30.06,WNW,288,9.0,11.0,24,0.00,,,0.00,0,WeatherCatV1.14B232,2013-03-18 05:04:00,
2013-03-17 22:09:00,37.8,3.4,30.06,SW,233,2.0,11.0,23,0.00,,,0.00,0,WeatherCatV1.14B232,2013-03-18 05:09:00,
2013-03-17 22:14:00,37.8,4.3,30.06,South,182,5.0,11.0,24,0.00,,,0.00,0,WeatherCatV1.14B232,2013-03-18 05:14:00,
2013-03-17 22:19:00,37.6,4.1,30.05,WSW,239,11.0,11.0,24,0.00,,,0.00,0,WeatherCatV1.14B232,2013-03-18 05:19:00,
2013-03-17 22:24:00,37.6,5.0,30.05,WNW,302,9.0,11.0,25,0.00,,,0.00,0,WeatherCatV1.14B232,2013-03-18 05:24:00,
2013-03-17 22:29:00,37.5,5.8,30.05,West,273,3.0,9.0,26,0.00,,,0.00,0,WeatherCatV1.14B232,2013-03-18 05:29:00,
2013-03-17 22:34:00,37.3,7.2,30.05,NW,322,2.0,12.0,28,0.00,,,0.00,0,WeatherCatV1.14B232,2013-03-18 05:34:00,
2013-03-17 22:39:00,37.2,5.5,30.05,NW,315,2.0,15.0,26,0.00,,,0.00,0,WeatherCatV1.14B232,2013-03-18 05:39:00,
2013-03-17 22:44:00,36.9,6.1,30.05,West,274,3.0,11.0,27,0.00,,,0.00,0,WeatherCatV1.14B232,2013-03-18 05:44:00,
2013-03-17 22:49:00,36.9,6.9,30.05,WNW,288,6.0,9.0,28,0.00,,,0.00,0,WeatherCatV1.14B232,2013-03-18 05:49:00,
2013-03-17 22:54:00,36.9,6.1,30.05,NW,312,2.0,6.0,27,0.00,,,0.00,0,WeatherCatV1.14B232,2013-03-18 05:54:00,
2013-03-17 22:59:00,36.8,6.8,30.05,WNW,283,7.0,7.0,28,0.00,,,0.00,0,WeatherCatV1.14B232,2013-03-18 05:59:00,
2013-03-17 23:04:00,36.8,6.8,30.05,NW,310,0.0,10.0,28,0.00,,,0.00,0,WeatherCatV1.14B232,2013-03-18 06:04:00,
2013-03-17 23:09:00,36.6,7.4,30.05,NW,305,6.0,10.0,29,0.00,,,0.00,0,WeatherCatV1.14B232,2013-03-18 06:09:00,
2013-03-17 23:14:00,36.3,7.9,30.05,WNW,293,5.0,8.0,30,0.00,,,0.00,0,WeatherCatV1.14B232,2013-03-18 06:14:00,
2013-03-17 23:19:00,36.2,7.8,30.04,WNW,297,9.0,10.0,30,0.00,,,0.00,0,WeatherCatV1.14B232,2013-03-18 06:19:00,
2013-03-17 23:24:00,36.3,8.6,30.04,WNW,303,4.0,9.0,31,0.00,,,0.00,0,WeatherCatV1.14B232,2013-03-18 06:24:00,
2013-03-17 23:29:00,36.2,8.5,30.04,NW,309,5.0,9.0,31,0.00,,,0.00,0,WeatherCatV1.14B232,2013-03-18 06:29:00,
2013-03-17 23:34:00,36.2,8.5,30.04,NW,305,5.0,11.0,31,0.00,,,0.00,0,WeatherCatV1.14B232,2013-03-18 06:34:00,
2013-03-17 23:39:00,36.0,7.6,30.04,NW,305,3.0,10.0,30,0.00,,,0.00,0,WeatherCatV1.14B232,2013-03-18 06:39:00,
2013-03-17 23:44:00,36.0,6.1,30.04,WNW,293,10.0,13.0,28,0.00,,,0.00,0,WeatherCatV1.14B232,2013-03-18 06:44:00,
2013-03-17 23:49:00,36.0,6.1,30.04,WNW,293,5.0,11.0,28,0.00,,,0.00,0,WeatherCatV1.14B232,2013-03-18 06:49:00,
2013-03-17 23:54:00,36.0,6.1,30.04,WNW,299,5.0,11.0,28,0.00,,,0.00,0,WeatherCatV1.14B232,2013-03-18 06:54:00,
2013-03-17 23:59:00,36.2,6.3,30.04,NW,310,4.0,9.0,28,0.00,,,0.00,0,WeatherCatV1.14B232,2013-03-18 06:59:00,